Muncie, Indiana
Current Conditions -  °F | °C
As of 4:53 AM on Wednesday 22 Oct 2014 (Local Time) from KMIE Reporting Station
Overcast Overcast  
Wind Chill:   Ceiling: 2500
Heat Index:   Visibility: 10mi
Dew Point:   Wind: 5mph
Humidity: 80%   Direction: 10°N
Pressure: 30.25"   Gusts: NA
Location:  40.19°N, 85.38°W
Report Text: KMIE 220853Z AUTO 01004KT 10SM OVC025 06/03 A3025 RMK AO2 SLP241 T00610028 53012
Loading
Personal Weather Stations






























Interactive Weather Map
Tropical Storm Tracking
New forecast layout! Learn more

10-Day Weather Forecast

Advertisements
Track Severe Weather on mobile